.
WxDataArchive / Data Records for 2009-08-21
2009-08-20 August 2009 2009-08-22

Data Records for Friday, 21 August 2009

Time	Temp	Chill	HIndex	Humid	Dewpt	 Wind 	HiWind	WindDir	Rain 	Barom 
-----	----	-----	------	-----	-----	------	------	-------	-----	----- 
00:00	70.9	70.9	70.9	71	61.0	1	3	270	0.00	29.775 
00:05	70.8	70.8	70.8	72	61.3	0	4	270	0.00	29.775 
00:10	70.4	70.4	70.4	72	60.9	0	3	270	0.00	29.775 
00:15	70.3	70.3	70.3	73	61.2	1	3	270	0.00	29.774 
00:20	70.1	70.1	70.1	73	61.0	1	5	270	0.00	29.774 
00:25	69.9	69.9	69.9	74	61.2	0	3	225	0.00	29.774 
00:30	69.8	69.8	69.8	74	61.1	0	1	225	0.00	29.769 
00:35	69.6	69.6	69.6	75	61.3	0	1	225	0.00	29.769 
00:40	69.4	69.4	69.4	75	61.1	0	3	225	0.00	29.769 
00:45	69.3	69.3	69.3	75	61.0	0	2	225	0.00	29.770 
00:50	69.3	69.3	69.3	75	61.0	0	2	248	0.00	29.770 
00:55	69.3	69.3	69.3	75	61.0	0	2	248	0.00	29.770 
01:00	69.1	69.1	69.1	76	61.2	1	5	270	0.00	29.770 
01:05	69.1	69.1	69.1	76	61.2	1	3	270	0.00	29.770 
01:10	69.1	69.1	69.1	76	61.2	1	5	248	0.00	29.770 
01:15	69.1	69.1	69.1	76	61.2	1	3	248	0.00	29.763 
01:20	68.9	68.9	68.9	76	61.0	0	3	248	0.00	29.763 
01:25	68.9	68.9	68.9	76	61.0	1	4	248	0.00	29.763 
01:30	68.9	68.9	68.9	76	61.0	1	3	248	0.00	29.770 
01:35	68.9	68.9	68.9	76	61.0	1	4	248	0.00	29.770 
01:40	68.9	68.9	68.9	76	61.0	1	4	0	0.00	29.770 
01:45	69.1	69.1	69.1	76	61.2	1	4	292	0.00	29.772 
01:50	69.1	69.1	69.1	76	61.2	1	4	248	0.00	29.772 
01:55	69.3	69.3	69.3	76	61.4	0	3	248	0.00	29.772 
02:00	69.1	69.1	69.1	78	61.9	1	3	248	0.00	29.763 
02:05	68.4	68.4	68.4	78	61.3	1	3	248	0.00	29.763 
02:10	68.1	68.1	68.1	80	61.7	0	1	248	0.00	29.763 
02:15	67.9	67.9	67.9	80	61.5	0	1	248	0.00	29.756 
02:20	67.8	67.8	67.8	81	61.7	1	4	270	0.00	29.756 
02:25	67.6	67.6	67.6	81	61.6	1	4	270	0.00	29.756 
02:30	67.6	67.6	67.6	80	61.2	1	3	270	0.00	29.755 
02:35	67.6	67.6	67.6	80	61.2	1	2	270	0.00	29.755 
02:40	67.4	67.4	67.4	79	60.7	1	3	248	0.00	29.755 
02:45	67.4	67.4	67.4	79	60.7	1	3	270	0.00	29.747 
02:50	67.4	67.4	67.4	76	59.6	1	5	270	0.00	29.747 
02:55	67.6	67.6	67.6	75	59.4	1	4	270	0.00	29.747 
03:00	67.6	67.6	67.6	74	59.0	0	1	270	0.00	29.746 
03:05	67.6	67.6	67.6	74	59.0	0	2	270	0.00	29.746 
03:10	67.4	67.4	67.4	74	58.8	0	2	270	0.00	29.746 
03:15	67.4	67.4	67.4	74	58.8	0	1	270	0.00	29.743 
03:20	67.3	67.3	67.3	73	58.3	0	1	270	0.00	29.743 
03:25	67.1	67.1	67.1	72	57.8	0	1	270	0.00	29.743 
03:30	67.1	67.1	67.1	71	57.4	0	1	270	0.00	29.744 
03:35	67.1	67.1	67.1	71	57.4	0	1	270	0.00	29.744 
03:40	67.1	67.1	67.1	71	57.4	0	3	248	0.00	29.744 
03:45	67.1	67.1	67.1	72	57.8	0	1	248	0.00	29.742 
03:50	67.1	67.1	67.1	72	57.8	0	1	248	0.00	29.742 
03:55	67.1	67.1	67.1	72	57.8	0	2	248	0.00	29.742 
04:00	67.3	67.3	67.3	72	58.0	0	3	248	0.00	29.743 
04:05	67.3	67.3	67.3	73	58.3	0	3	248	0.00	29.743 
04:10	67.1	67.1	67.1	73	58.1	1	5	248	0.00	29.743 
04:15	67.1	67.1	67.1	73	58.1	0	2	225	0.00	29.741 
04:20	66.9	66.9	66.9	73	58.0	1	4	225	0.00	29.741 
04:25	66.8	66.8	66.8	74	58.2	1	2	270	0.00	29.741 
04:30	66.8	66.8	66.8	74	58.2	1	4	292	0.00	29.743 
04:35	66.6	66.6	66.6	75	58.4	1	6	248	0.00	29.743 
04:40	66.4	66.4	66.4	76	58.6	1	4	248	0.00	29.743 
04:45	66.3	66.3	66.3	76	58.5	1	5	270	0.00	29.743 
04:50	66.3	66.3	66.3	77	58.9	1	5	270	0.00	29.743 
04:55	66.1	66.1	66.1	77	58.7	0	2	270	0.00	29.743 
05:00	66.0	66.0	66.0	78	58.9	1	4	225	0.00	29.740 
05:05	65.8	65.8	65.8	78	58.7	1	5	270	0.00	29.740 
05:10	65.8	65.8	65.8	79	59.1	1	7	315	0.00	29.740 
05:15	65.6	65.6	65.6	79	58.9	1	3	248	0.00	29.741 
05:20	65.5	65.5	65.5	80	59.2	1	3	248	0.00	29.741 
05:25	65.5	65.5	65.5	80	59.2	1	5	270	0.00	29.741 
05:30	65.3	65.3	65.3	80	59.0	1	3	248	0.00	29.745 
05:35	65.2	65.2	65.2	81	59.2	1	3	270	0.00	29.745 
05:40	65.0	65.0	65.0	81	59.0	1	3	270	0.00	29.745 
05:45	65.0	65.0	65.0	81	59.0	1	2	270	0.00	29.743 
05:50	64.8	64.8	64.8	81	58.8	1	3	270	0.00	29.743 
05:55	64.8	64.8	64.8	81	58.8	1	4	270	0.00	29.743 
06:00	64.8	64.8	64.8	82	59.2	0	2	270	0.00	29.743 
06:05	64.7	64.7	64.7	82	59.1	1	4	270	0.00	29.743 
06:10	64.7	64.7	64.7	82	59.1	1	3	270	0.00	29.743 
06:15	64.7	64.7	64.7	83	59.4	1	4	292	0.00	29.747 
06:20	64.5	64.5	64.5	83	59.2	1	3	248	0.00	29.747 
06:25	64.5	64.5	64.5	84	59.6	0	3	248	0.00	29.747 
06:30	64.3	64.3	64.3	84	59.4	1	3	270	0.00	29.749 
06:35	64.3	64.3	64.3	84	59.4	1	3	248	0.00	29.749 
06:40	64.3	64.3	64.3	85	59.7	1	2	248	0.00	29.749 
06:45	64.2	64.2	64.2	85	59.6	0	2	248	0.00	29.751 
06:50	64.2	64.2	64.2	85	59.6	1	4	270	0.00	29.751 
06:55	64.2	64.2	64.2	85	59.6	1	4	270	0.00	29.751 
07:00	64.2	64.2	64.2	85	59.6	1	3	248	0.00	29.755 
07:05	64.0	64.0	64.0	86	59.7	0	3	225	0.00	29.755 
07:10	64.0	64.0	64.0	86	59.7	1	6	292	0.00	29.755 
07:15	64.0	64.0	64.0	86	59.7	0	3	292	0.00	29.754 
07:20	63.9	63.9	63.9	86	59.6	1	4	248	0.00	29.754 
07:25	64.0	64.0	64.0	86	59.7	1	3	248	0.00	29.754 
07:30	64.0	64.0	64.0	86	59.7	1	4	248	0.00	29.764 
07:35	64.0	64.0	64.0	86	59.7	1	3	248	0.00	29.764 
07:40	64.0	64.0	64.0	86	59.7	1	3	248	0.00	29.764 
07:45	64.2	64.2	64.2	86	59.9	1	4	248	0.00	29.766 
07:50	64.3	64.3	64.3	86	60.0	1	3	270	0.00	29.766 
07:55	64.3	64.3	64.3	85	59.7	0	2	270	0.00	29.766 
08:00	64.5	64.5	64.5	85	59.9	1	4	248	0.00	29.766 
08:05	64.7	64.7	64.7	85	60.1	1	3	270	0.00	29.766 
08:10	64.8	64.8	64.8	84	59.8	1	3	270	0.00	29.766 
08:15	65.0	65.0	65.0	84	60.0	2	5	270	0.00	29.766 
08:20	65.2	65.2	65.2	83	59.9	1	3	292	0.00	29.766 
08:25	65.5	65.5	65.5	82	59.9	2	4	248	0.00	29.766 
08:30	65.6	65.6	65.6	82	59.9	1	3	270	0.00	29.763 
08:35	66.0	66.0	66.0	82	60.3	0	2	292	0.00	29.763 
08:40	66.3	66.3	66.3	81	60.3	1	4	292	0.00	29.763 
08:45	66.4	66.4	66.4	80	60.0	1	3	270	0.00	29.765 
08:50	66.6	66.6	66.6	80	60.2	1	4	292	0.00	29.765 
08:55	66.8	66.8	66.8	79	60.1	1	4	248	0.00	29.765 
09:00	66.9	66.9	66.9	79	60.2	1	3	248	0.00	29.768 
09:05	67.1	67.1	67.1	78	60.0	1	5	270	0.00	29.768 
09:10	67.3	67.3	67.3	79	60.6	1	5	270	0.00	29.768 
09:15	67.3	67.3	67.3	78	60.2	2	7	248	0.00	29.769 
09:20	67.4	67.4	67.4	78	60.3	1	2	248	0.00	29.769 
09:25	67.9	67.9	67.9	77	60.4	1	5	270	0.00	29.769 
09:30	68.1	68.1	68.1	76	60.2	2	6	248	0.00	29.775 
09:35	68.3	68.3	68.3	77	60.8	1	5	248	0.00	29.775 
09:40	68.6	68.6	68.6	77	61.1	1	3	248	0.00	29.775 
09:45	68.8	68.8	68.8	74	60.2	2	7	270	0.00	29.779 
09:50	69.1	69.1	69.1	75	60.8	1	5	248	0.00	29.779 
09:55	69.3	69.3	69.3	73	60.3	2	6	270	0.00	29.779 
10:00	69.4	69.4	69.4	73	60.4	2	5	248	0.00	29.778 
10:05	69.4	69.4	69.4	73	60.4	3	6	248	0.00	29.778 
10:10	69.8	69.8	69.8	72	60.4	2	5	112	0.00	29.778 
10:15	69.9	69.9	69.9	71	60.1	3	7	270	0.00	29.780 
10:20	70.3	70.3	70.3	73	61.2	2	6	270	0.00	29.780 
10:25	70.8	70.8	70.8	70	60.5	3	6	270	0.00	29.780 
10:30	71.1	71.1	71.1	70	60.8	2	6	248	0.00	29.779 
10:35	71.1	71.1	71.1	68	60.0	2	7	270	0.00	29.779 
10:40	71.1	71.1	71.1	69	60.4	3	5	270	0.00	29.779 
10:45	71.3	71.3	71.3	67	59.8	3	9	270	0.00	29.781 
10:50	71.3	71.3	71.3	66	59.3	3	6	270	0.00	29.781 
10:55	71.5	71.5	71.5	67	60.0	3	7	270	0.00	29.781 
11:00	71.8	71.8	71.8	65	59.4	3	7	270	0.00	29.782 
11:05	72.3	72.3	72.3	67	60.7	2	6	270	0.00	29.782 
11:10	72.3	72.3	72.3	65	59.9	3	10	248	0.00	29.782 
11:15	72.7	72.7	72.7	66	60.7	2	6	270	0.00	29.782 
11:20	72.7	72.7	72.7	64	59.8	2	5	270	0.00	29.782 
11:25	72.5	72.5	72.5	63	59.2	2	7	270	0.00	29.782 
11:30	72.5	72.5	72.5	65	60.0	2	6	270	0.00	29.782 
11:35	73.2	73.2	73.2	65	60.7	2	6	270	0.00	29.782 
11:40	73.3	73.3	73.3	62	59.5	2	6	270	0.00	29.782 
11:45	73.3	73.3	73.3	62	59.5	2	5	270	0.00	29.783 
11:50	73.3	73.3	73.3	63	59.9	2	6	292	0.00	29.783 
11:55	73.3	73.3	73.3	61	59.0	4	13	248	0.00	29.783 
12:00	73.5	73.5	73.5	62	59.7	3	10	270	0.00	29.784 
12:05	73.9	73.9	73.9	59	58.7	3	9	270	0.00	29.784 
12:10	73.9	73.9	73.9	59	58.7	4	9	270	0.00	29.784 
12:15	73.9	73.9	73.9	60	59.1	2	5	270	0.00	29.785 
12:20	74.0	74.0	74.0	61	59.7	2	7	270	0.00	29.785 
12:25	74.4	74.4	74.4	60	59.6	3	6	270	0.00	29.785 
12:30	74.6	74.6	74.6	58	58.8	3	9	292	0.00	29.781 
12:35	74.4	74.4	74.4	60	59.6	2	6	270	0.00	29.781 
12:40	74.7	74.7	74.7	58	58.9	3	9	270	0.00	29.781 
12:45	74.9	74.9	74.9	58	59.1	2	7	270	0.00	29.780 
12:50	74.7	74.7	74.7	58	58.9	2	5	270	0.00	29.780 
12:55	74.6	74.6	74.6	58	58.8	3	7	270	0.00	29.780 
13:00	74.7	74.7	74.7	58	58.9	2	9	270	0.00	29.777 
13:05	74.6	74.6	74.6	58	58.8	2	6	270	0.00	29.777 
13:10	75.4	75.4	77.6	61	61.0	1	4	225	0.00	29.777 
13:15	75.8	75.8	77.9	58	59.9	2	4	270	0.00	29.778 
13:20	75.1	75.1	77.6	55	57.8	2	6	270	0.00	29.778 
13:25	74.9	74.9	74.9	58	59.1	2	5	248	0.00	29.778 
13:30	75.1	75.1	77.5	57	58.8	2	5	202	0.00	29.772 
13:35	74.9	74.9	74.9	57	58.6	2	5	270	0.00	29.772 
13:40	74.7	74.7	74.7	58	58.9	2	5	270	0.00	29.772 
13:45	74.7	74.7	74.7	58	58.9	2	4	270	0.00	29.775 
13:50	75.3	75.3	77.6	58	59.5	2	6	292	0.00	29.775 
13:55	75.3	75.3	77.6	57	59.0	3	9	270	0.00	29.775 
14:00	75.6	75.6	77.8	57	59.3	2	6	248	0.00	29.770 
14:05	75.6	75.6	77.8	57	59.3	2	7	270	0.00	29.770 
14:10	75.8	75.8	77.9	57	59.5	2	5	248	0.00	29.770 
14:15	76.0	76.0	78.0	58	60.1	3	7	292	0.00	29.775 
14:20	76.0	76.0	78.1	55	58.6	2	5	248	0.00	29.775 
14:25	75.6	75.6	77.8	57	59.3	1	4	292	0.00	29.775 
14:30	75.3	75.3	77.7	55	58.0	2	4	270	0.00	29.775 
14:35	74.7	74.7	74.7	57	58.4	2	4	248	0.00	29.775 
14:40	74.4	74.4	74.4	58	58.6	2	5	270	0.00	29.775 
14:45	75.3	75.3	77.6	58	59.5	2	6	248	0.00	29.778 
14:50	76.3	76.3	78.3	57	59.9	2	6	270	0.00	29.778 
14:55	75.6	75.6	77.8	56	58.8	2	5	270	0.00	29.778 
15:00	74.9	74.9	74.9	57	58.6	2	5	270	0.00	29.773 
15:05	75.3	75.3	77.6	59	60.0	2	5	270	0.00	29.773 
15:10	76.1	76.1	78.1	57	59.7	2	9	270	0.00	29.773 
15:15	76.3	76.3	78.3	57	59.9	2	5	315	0.00	29.766 
15:20	77.0	77.0	78.8	58	61.1	2	6	292	0.00	29.766 
15:25	77.7	77.7	79.2	55	60.2	2	5	248	0.00	29.766 
15:30	77.7	77.7	79.2	53	59.2	3	6	270	0.00	29.761 
15:35	77.4	77.4	79.0	54	59.4	3	6	270	0.00	29.761 
15:40	77.2	77.2	78.9	56	60.3	2	5	292	0.00	29.761 
15:45	77.4	77.4	79.0	54	59.4	2	6	292	0.00	29.758 
15:50	77.2	77.2	78.8	54	59.2	2	9	292	0.00	29.758 
15:55	76.7	76.7	78.5	54	58.8	2	4	248	0.00	29.758 
16:00	76.0	76.0	78.1	55	58.6	2	6	270	0.00	29.753 
16:05	75.6	75.6	77.8	56	58.8	3	9	270	0.00	29.753 
16:10	75.8	75.8	77.9	57	59.5	2	9	270	0.00	29.753 
16:15	76.1	76.1	78.1	57	59.7	1	4	248	0.00	29.758 
16:20	76.0	76.0	78.1	57	59.6	1	3	270	0.00	29.758 
16:25	76.1	76.1	78.1	57	59.7	2	5	270	0.00	29.758 
16:30	76.1	76.1	78.1	56	59.2	3	6	270	0.00	29.755 
16:35	76.5	76.5	78.4	56	59.6	2	4	270	0.00	29.755 
16:40	76.8	76.8	78.6	58	60.9	2	4	270	0.00	29.755 
16:45	76.8	76.8	78.6	55	59.4	2	5	270	0.00	29.758 
16:50	76.7	76.7	78.5	55	59.3	1	5	270	0.00	29.758 
16:55	76.1	76.1	78.1	56	59.2	2	6	248	0.00	29.758 
17:00	75.6	75.6	77.8	58	59.8	1	3	270	0.00	29.760 
17:05	75.1	75.1	77.5	59	59.8	1	3	270	0.00	29.760 
17:10	73.7	73.7	73.7	64	60.7	1	3	270	0.00	29.760 
17:15	72.1	72.1	72.1	69	61.4	1	3	338	0.00	29.767 
17:20	70.9	70.9	70.9	75	62.6	1	3	338	0.00	29.767 
17:25	70.1	70.1	70.1	80	63.6	1	3	292	0.04	29.767 
17:30	68.9	68.9	68.9	82	63.2	1	4	270	0.01	29.776 
17:35	68.1	68.1	68.1	85	63.4	2	5	270	0.00	29.776 
17:40	67.9	67.9	67.9	87	63.9	1	4	270	0.01	29.776 
17:45	67.8	67.8	67.8	88	64.1	0	1	270	0.00	29.774 
17:50	67.8	67.8	67.8	89	64.4	0	2	270	0.00	29.774 
17:55	67.6	67.6	67.6	88	63.9	0	1	270	0.00	29.774 
18:00	67.9	67.9	67.9	89	64.5	0	1	270	0.00	29.780 
18:05	67.9	67.9	67.9	88	64.2	1	3	292	0.00	29.780 
18:10	68.1	68.1	68.1	88	64.4	1	3	292	0.00	29.780 
18:15	68.1	68.1	68.1	88	64.4	1	3	270	0.00	29.781 
18:20	68.1	68.1	68.1	88	64.4	1	3	270	0.00	29.781 
18:25	68.3	68.3	68.3	88	64.6	0	1	270	0.00	29.781 
18:30	68.6	68.6	68.6	89	65.2	0	1	270	0.00	29.775 
18:35	69.1	69.1	69.1	88	65.4	0	2	270	0.00	29.775 
18:40	69.3	69.3	69.3	85	64.6	0	1	270	0.00	29.775 
18:45	69.4	69.4	69.4	83	64.0	0	2	270	0.00	29.772 
18:50	69.8	69.8	69.8	83	64.4	0	1	270	0.00	29.772 
18:55	70.1	70.1	70.1	83	64.7	0	1	270	0.00	29.772 
19:00	70.3	70.3	70.3	82	64.5	0	1	270	0.00	29.770 
19:05	70.4	70.4	70.4	80	63.9	0	2	270	0.00	29.770 
19:10	70.8	70.8	70.8	80	64.3	0	2	270	0.00	29.770 
19:15	70.9	70.9	70.9	79	64.1	0	2	270	0.00	29.768 
19:20	70.9	70.9	70.9	78	63.7	0	2	270	0.00	29.768 
19:25	71.1	71.1	71.1	77	63.5	0	2	270	0.00	29.768 
19:30	71.3	71.3	71.3	77	63.7	0	1	270	0.00	29.769 
19:35	71.3	71.3	71.3	77	63.7	0	1	270	0.00	29.769 
19:40	71.1	71.1	71.1	77	63.5	0	1	270	0.00	29.769 
19:45	70.9	70.9	70.9	77	63.3	0	1	270	0.00	29.770 
19:50	70.8	70.8	70.8	76	62.8	0	1	270	0.00	29.770 
19:55	70.6	70.6	70.6	77	63.0	0	1	270	0.00	29.770 
20:00	70.3	70.3	70.3	77	62.7	0	1	270	0.00	29.772 
20:05	70.1	70.1	70.1	77	62.5	0	0	---	0.00	29.772 
20:10	69.9	69.9	69.9	78	62.7	0	1	270	0.00	29.772 
20:15	70.1	70.1	70.1	78	62.9	0	0	---	0.00	29.774 
20:20	69.9	69.9	69.9	79	63.1	0	0	---	0.00	29.774 
20:25	69.6	69.6	69.6	80	63.1	0	0	---	0.00	29.774 
20:30	69.3	69.3	69.3	80	62.9	0	0	---	0.00	29.779 
20:35	69.1	69.1	69.1	80	62.7	0	0	---	0.00	29.779 
20:40	68.9	68.9	68.9	81	62.8	0	1	270	0.00	29.779 
20:45	68.9	68.9	68.9	81	62.8	0	0	---	0.00	29.785 
20:50	68.9	68.9	68.9	81	62.8	0	0	---	0.00	29.785 
20:55	68.9	68.9	68.9	81	62.8	0	0	---	0.00	29.785 
21:00	68.9	68.9	68.9	81	62.8	0	0	---	0.00	29.792 
21:05	68.8	68.8	68.8	81	62.7	0	0	---	0.00	29.792 
21:10	68.8	68.8	68.8	80	62.4	0	0	---	0.00	29.792 
21:15	68.9	68.9	68.9	80	62.5	0	0	---	0.00	29.792 
21:20	69.1	69.1	69.1	80	62.7	0	0	---	0.00	29.792 
21:25	69.1	69.1	69.1	81	63.0	0	0	---	0.00	29.792 
21:30	68.9	68.9	68.9	79	62.1	0	1	270	0.00	29.795 
21:35	68.9	68.9	68.9	78	61.7	0	1	270	0.00	29.795 
21:40	69.1	69.1	69.1	78	61.9	0	0	---	0.00	29.795 
21:45	69.1	69.1	69.1	78	61.9	0	0	---	0.00	29.797 
21:50	68.9	68.9	68.9	78	61.7	0	0	---	0.00	29.797 
21:55	68.8	68.8	68.8	78	61.7	0	1	270	0.00	29.797 
22:00	68.8	68.8	68.8	78	61.7	0	0	---	0.00	29.800 
22:05	68.8	68.8	68.8	78	61.7	0	0	---	0.00	29.800 
22:10	68.6	68.6	68.6	78	61.5	0	1	270	0.00	29.800 
22:15	68.6	68.6	68.6	77	61.1	0	3	270	0.00	29.807 
22:20	67.9	67.9	67.9	81	61.8	1	3	270	0.02	29.807 
22:25	67.1	67.1	67.1	84	62.1	0	1	270	0.01	29.807 
22:30	66.3	66.3	66.3	85	61.6	0	1	270	0.00	29.812 
22:35	66.0	66.0	66.0	87	62.0	0	0	---	0.00	29.812 
22:40	65.6	65.6	65.6	88	61.9	0	1	270	0.00	29.812 
22:45	65.3	65.3	65.3	88	61.6	0	1	270	0.00	29.820 
22:50	65.0	65.0	65.0	88	61.4	0	1	270	0.00	29.820 
22:55	65.0	65.0	65.0	89	61.7	0	0	---	0.00	29.820 
23:00	64.8	64.8	64.8	89	61.5	0	0	---	0.00	29.824 
23:05	64.7	64.7	64.7	90	61.7	0	0	---	0.00	29.824 
23:10	64.7	64.7	64.7	90	61.7	0	0	---	0.00	29.824 
23:15	64.7	64.7	64.7	91	62.0	0	0	---	0.00	29.818 
23:20	64.7	64.7	64.7	91	62.0	0	0	---	0.00	29.818 
23:25	64.5	64.5	64.5	92	62.1	0	1	270	0.00	29.818 
23:30	64.5	64.5	64.5	92	62.1	0	0	---	0.00	29.816 
23:35	64.5	64.5	64.5	92	62.1	0	0	---	0.00	29.816 
23:40	64.7	64.7	64.7	92	62.3	0	0	---	0.00	29.816 
23:45	64.7	64.7	64.7	92	62.3	0	0	---	0.00	29.810 
23:50	64.5	64.5	64.5	92	62.1	0	0	---	0.01	29.810 
23:55	64.5	64.5	64.5	92	62.1	0	0	---	0.00	29.810 

CoCoRaHS
IN-AL-39
A2 Web Hosting
Creative Commons License
GoDaddy
search engine by freefind advanced

loaded 2018-11-16 23:19:48 • last modified 2010-11-18 10:43:29
Privacy PolicyDisclaimer
• wx.awcolley.com is powered by PmWiki v.2002016 •
• all content (unless otherwise noted) © 2018 A W Colley